Gillette, New Jersey
Current Conditions -  °F | °C
As of 6:45 AM on Monday 20 Oct 2014 (Local Time) from KMMU Reporting Station
Clear Clear  
Wind Chill: 34°   Ceiling: Unl
Heat Index: 34°   Visibility: 10mi
Dew Point: 32°   Wind: 0mph
Humidity: 93%   Direction: NA
Pressure: 30.1"   Gusts: NA
Location:  40.67°N, 74.47°W
Report Text: KMMU 201045Z 00000KT 10SM SKC 01/00 A3010
Loading
Personal Weather Stations






























Interactive Weather Map
Tropical Storm Tracking
New forecast layout! Learn more

10-Day Weather Forecast

Advertisements
Track Severe Weather on mobile